Time;durP1;ratioP1;P1;durP2;ratioP2;P2;SDS_P1;SDS_P2;PMS_P1;PMS_P2;Temp;Humidity;BMP_temperature;BMP_pressure;BME280_temperature;BME280_humidity;BME280_pressure;Samples;Min_cycle;Max_cycle;Signal;HPM_P1;HPM_P2
2024/02/08 00:01:40;;;;;;;0.10;0.10;;;;;;;7.55;78.90;99504.09;7367512;19;20863;-64
2024/02/08 00:04:05;;;;;;;0.00;0.00;;;;;;;7.61;79.08;99503.09;7368941;19;20708;-64
2024/02/08 00:06:31;;;;;;;0.10;0.10;;;;;;;7.61;79.27;99495.28;7365972;19;20006;-64
2024/02/08 00:09:01;;;;;;;0.10;0.10;;;;;;;7.62;79.35;99494.41;7369030;19;20029;-64
2024/02/08 00:11:31;;;;;;;0.00;0.00;;;;;;;7.58;79.12;99482.38;7370110;19;20002;-64
2024/02/08 00:13:57;;;;;;;0.10;0.10;;;;;;;7.63;79.26;99491.75;7368776;19;20019;-64
2024/02/08 00:16:23;;;;;;;0.10;0.10;;;;;;;7.62;78.98;99489.19;7368908;19;20041;-64
2024/02/08 00:18:48;;;;;;;0.00;0.00;;;;;;;7.60;79.28;99475.38;7368385;19;20469;-64
2024/02/08 00:21:14;;;;;;;0.10;0.10;;;;;;;7.50;78.88;99454.91;7368101;19;20841;-64
2024/02/08 00:23:40;;;;;;;0.10;0.10;;;;;;;7.57;79.34;99465.09;7366692;19;20129;-64
2024/02/08 00:26:05;;;;;;;0.10;0.10;;;;;;;7.58;79.01;99456.41;7370445;19;20006;-64
2024/02/08 00:28:30;;;;;;;0.00;0.00;;;;;;;7.50;79.11;99434.13;7367221;19;20090;-64
2024/02/08 00:30:56;;;;;;;0.03;0.03;;;;;;;7.66;79.02;99438.84;7367055;19;20019;-64
2024/02/08 00:33:25;;;;;;;0.00;0.00;;;;;;;7.60;79.28;99419.06;7367916;19;20490;-64
2024/02/08 00:35:55;;;;;;;0.00;0.00;;;;;;;7.68;79.27;99427.50;7367989;19;20015;-65
2024/02/08 00:38:20;;;;;;;0.10;0.10;;;;;;;7.65;78.96;99418.94;7367374;19;20015;-64
2024/02/08 00:40:46;;;;;;;0.10;0.10;;;;;;;7.66;79.08;99413.72;7373114;19;20014;-64
2024/02/08 00:43:12;;;;;;;0.10;0.10;;;;;;;7.67;78.70;99405.00;7369477;19;20486;-64
2024/02/08 00:45:37;;;;;;;0.10;0.10;;;;;;;7.57;78.84;99376.78;7367891;19;20041;-64
2024/02/08 00:48:04;;;;;;;0.08;0.08;;;;;;;7.66;78.97;99392.09;7364208;19;20017;-64
2024/02/08 00:50:29;;;;;;;0.10;0.10;;;;;;;7.66;78.75;99394.69;7368316;19;20759;-64
2024/02/08 00:52:55;;;;;;;0.10;0.10;;;;;;;7.67;78.99;99397.22;7366236;19;20006;-64
2024/02/08 00:55:21;;;;;;;0.10;0.10;;;;;;;7.69;79.01;99402.34;7365806;19;20033;-64
2024/02/08 00:57:47;;;;;;;0.00;0.00;;;;;;;7.70;78.67;99398.84;7366948;19;20027;-64
2024/02/08 01:00:13;;;;;;;0.10;0.10;;;;;;;7.58;78.55;99373.28;7368449;19;20011;-64
2024/02/08 01:02:39;;;;;;;0.10;0.10;;;;;;;7.70;78.38;99398.84;7363834;19;20507;-64
2024/02/08 01:05:05;;;;;;;0.10;0.10;;;;;;;7.69;78.53;99397.16;7370169;19;20809;-64
2024/02/08 01:07:34;;;;;;;0.10;0.10;;;;;;;7.66;78.52;99392.09;7367382;19;20027;-64
2024/02/08 01:10:00;;;;;;;0.05;0.05;;;;;;;7.67;78.69;99384.22;7366852;19;20014;-63
2024/02/08 01:12:26;;;;;;;0.00;0.00;;;;;;;7.72;78.76;99387.53;7367053;19;20013;-64
2024/02/08 01:14:52;;;;;;;0.00;0.00;;;;;;;7.73;78.78;99384.03;7367863;19;20021;-64
2024/02/08 01:17:17;;;;;;;0.10;0.10;;;;;;;7.73;78.67;99367.59;7367498;19;20105;-64
2024/02/08 01:19:43;;;;;;;0.00;0.00;;;;;;;7.73;78.59;99365.00;7367204;19;20085;-64
2024/02/08 01:22:09;;;;;;;0.03;0.03;;;;;;;7.76;78.66;99357.94;7367166;19;20829;-64
2024/02/08 01:24:34;;;;;;;0.10;0.10;;;;;;;7.61;78.70;99331.63;7367122;19;20014;-64
2024/02/08 01:27:00;;;;;;;0.10;0.10;;;;;;;7.78;78.37;99350.09;7371717;19;20472;-64
2024/02/08 01:29:26;;;;;;;0.10;0.10;;;;;;;7.78;78.10;99342.31;7366005;19;20045;-64
2024/02/08 01:31:52;;;;;;;0.10;0.10;;;;;;;7.78;78.39;99330.16;7364309;19;20018;-64
2024/02/08 01:34:19;;;;;;;0.10;0.10;;;;;;;7.79;77.94;99328.41;7367168;19;20506;-63
2024/02/08 01:36:46;;;;;;;0.10;0.10;;;;;;;7.74;78.10;99309.50;7364699;19;20047;-64
2024/02/08 01:39:13;;;;;;;0.08;0.08;;;;;;;7.80;78.17;99314.50;7365394;19;20018;-64
2024/02/08 01:41:42;;;;;;;0.10;0.10;;;;;;;7.80;77.77;99299.75;7362867;19;20011;-64
2024/02/08 01:44:09;;;;;;;0.10;0.10;;;;;;;7.81;78.01;99303.22;7366084;19;20038;-64
2024/02/08 01:46:38;;;;;;;0.10;0.10;;;;;;;7.79;77.65;99295.47;7369683;19;20011;-64
2024/02/08 01:49:26;;;;;;;0.10;0.10;;;;;;;7.86;78.02;99306.53;7367849;19;20017;-64
2024/02/08 01:51:59;;;;;;;0.10;0.10;;;;;;;7.80;77.67;99296.31;7365949;19;20765;-64
2024/02/08 01:54:28;;;;;;;0.10;0.10;;;;;;;7.67;77.90;99264.72;7368080;19;20082;-64
2024/02/08 01:56:56;;;;;;;0.10;0.10;;;;;;;7.65;77.30;99255.25;7367897;19;20010;-64
2024/02/08 01:59:21;;;;;;;0.10;0.10;;;;;;;7.65;77.52;99255.25;7370723;19;20596;-64
2024/02/08 02:01:55;;;;;;;0.08;0.08;;;;;;;7.84;77.67;99255.47;7365465;19;20025;-64
2024/02/08 02:04:21;;;;;;;0.08;0.08;;;;;;;7.82;77.68;99267.69;7365048;19;20014;-64
2024/02/08 02:06:47;;;;;;;0.00;0.00;;;;;;;7.74;77.47;99247.16;7363878;19;20327;-64
2024/02/08 02:09:23;;;;;;;0.10;0.10;;;;;;;7.83;77.47;99254.63;7366160;19;20661;-64
2024/02/08 02:12:18;;;;;;;0.05;0.05;;;;;;;7.89;78.00;99236.22;7369220;19;20006;-64
2024/02/08 02:14:44;;;;;;;0.10;0.10;;;;;;;7.75;77.65;99207.28;7364250;19;20533;-64
2024/02/08 02:17:26;;;;;;;0.10;0.10;;;;;;;7.86;77.45;99231.16;7364303;19;20678;-64
2024/02/08 02:19:52;;;;;;;0.10;0.10;;;;;;;7.81;77.46;99214.88;7366463;19;20677;-64
2024/02/08 02:22:19;;;;;;;0.10;0.10;;;;;;;7.87;77.72;99214.66;7361430;19;20018;-64
2024/02/08 02:24:48;;;;;;;0.10;0.10;;;;;;;7.88;77.40;99216.34;7365745;19;20011;-64
2024/02/08 02:27:15;;;;;;;0.10;0.10;;;;;;;7.88;77.53;99205.94;7364679;19;20366;-64
2024/02/08 02:29:44;;;;;;;0.10;0.10;;;;;;;7.89;77.61;99212.84;7364789;19;20029;-64
2024/02/08 02:32:20;;;;;;;0.10;0.10;;;;;;;7.90;77.72;99211.94;7362550;19;20580;-64
2024/02/08 02:34:50;;;;;;;0.03;0.03;;;;;;;7.80;77.48;99190.59;7364966;19;20010;-64
2024/02/08 02:37:16;;;;;;;0.10;0.10;;;;;;;7.90;77.86;99198.94;7364143;19;20006;-64
2024/02/08 02:39:41;;;;;;;0.10;0.10;;;;;;;7.81;77.35;99186.28;7364705;19;20756;-64
2024/02/08 02:42:07;;;;;;;0.00;0.00;;;;;;;7.87;77.15;99186.06;7364596;19;20078;-64
2024/02/08 02:44:34;;;;;;;0.10;0.10;;;;;;;7.85;77.22;99180.06;7363612;19;20015;-64
2024/02/08 02:47:00;;;;;;;0.10;0.10;;;;;;;7.84;77.17;99173.16;7370310;19;20041;-64
2024/02/08 02:49:26;;;;;;;0.10;0.10;;;;;;;7.75;76.95;99163.94;7365725;19;20528;-64
2024/02/08 02:51:52;;;;;;;0.10;0.10;;;;;;;7.73;77.17;99136.34;7361941;19;20462;-64
2024/02/08 02:54:21;;;;;;;0.10;0.10;;;;;;;7.69;77.11;99122.59;7363709;19;20056;-64
2024/02/08 02:56:47;;;;;;;0.08;0.08;;;;;;;7.69;77.35;99113.97;7364329;19;20006;-64
2024/02/08 02:59:16;;;;;;;0.10;0.10;;;;;;;7.66;77.03;99117.53;7368200;19;20050;-64
2024/02/08 03:01:55;;;;;;;0.10;0.10;;;;;;;7.46;76.77;99071.50;7369814;19;20914;-64
2024/02/08 03:04:21;;;;;;;0.10;0.10;;;;;;;7.78;76.31;99131.81;7364268;19;20026;-64
2024/02/08 03:06:48;;;;;;;0.10;0.10;;;;;;;7.76;76.60;99125.84;7368479;19;20098;-64
2024/02/08 03:09:17;;;;;;;0.10;0.10;;;;;;;7.72;76.49;99127.69;7364775;19;20066;-64
2024/02/08 03:11:45;;;;;;;0.10;0.10;;;;;;;7.68;76.35;99120.06;7362101;19;20010;-63
2024/02/08 03:14:11;;;;;;;0.00;0.00;;;;;;;7.60;76.55;99112.53;7360238;19;20031;-63
2024/02/08 03:16:37;;;;;;;0.10;0.10;;;;;;;7.49;76.94;99117.28;7360964;19;20053;-63
2024/02/08 03:19:05;;;;;;;0.10;0.10;;;;;;;7.46;76.94;99110.44;7362619;19;20041;-63
2024/02/08 03:21:35;;;;;;;0.10;0.10;;;;;;;7.39;76.58;99101.16;7362576;19;20011;-64
2024/02/08 03:24:02;;;;;;;0.00;0.00;;;;;;;7.13;76.32;99065.72;7365140;19;20015;-63
2024/02/08 03:26:29;;;;;;;0.00;0.00;;;;;;;7.10;76.59;99060.66;7367141;19;20365;-63
2024/02/08 03:28:55;;;;;;;0.10;0.10;;;;;;;7.07;76.81;99060.75;7370511;19;20014;-63
2024/02/08 03:31:20;;;;;;;0.10;0.10;;;;;;;7.06;76.10;99068.59;7367726;19;20060;-63
2024/02/08 03:33:45;;;;;;;0.00;0.00;;;;;;;6.99;76.55;99062.75;7370548;19;20565;-63
2024/02/08 03:36:12;;;;;;;0.10;0.10;;;;;;;6.96;76.33;99061.13;7368472;19;20014;-64
2024/02/08 03:38:37;;;;;;;0.10;0.10;;;;;;;6.91;77.04;99065.63;7370699;19;20408;-64
2024/02/08 03:41:03;;;;;;;0.10;0.10;;;;;;;6.66;77.28;99024.09;7371390;19;20039;-63
2024/02/08 03:43:29;;;;;;;0.10;0.10;;;;;;;6.80;77.21;99041.81;7368388;19;20011;-63
2024/02/08 03:45:57;;;;;;;0.10;0.10;;;;;;;6.74;77.09;99031.59;7371635;19;20014;-64
2024/02/08 03:48:23;;;;;;;0.00;0.00;;;;;;;6.75;77.34;99036.78;7371360;19;20019;-64
2024/02/08 03:50:51;;;;;;;0.03;0.03;;;;;;;6.75;77.39;99038.53;7372025;19;20370;-64
2024/02/08 03:53:20;;;;;;;0.05;0.05;;;;;;;6.74;77.52;99031.59;7364943;19;20019;-64
2024/02/08 03:55:47;;;;;;;0.10;0.10;;;;;;;6.65;77.60;99021.56;7368209;19;20014;-64
2024/02/08 03:58:17;;;;;;;0.10;0.10;;;;;;;6.68;77.50;99019.69;7368366;19;21258;-64
2024/02/08 04:00:46;;;;;;;0.00;0.00;;;;;;;6.57;77.68;98992.44;7370108;19;20066;-64
2024/02/08 04:03:14;;;;;;;0.10;0.10;;;;;;;6.67;77.81;98999.00;7368695;19;20454;-64
2024/02/08 04:54:57;;;;;;;0.10;0.10;;;;;;;6.31;77.62;98824.81;7368915;19;20006;-64
2024/02/08 04:57:25;;;;;;;0.00;0.00;;;;;;;6.18;77.42;98808.84;7367771;19;20002;-63
2024/02/08 04:59:50;;;;;;;0.05;0.05;;;;;;;6.22;77.81;98805.25;7367079;19;20013;-64
2024/02/08 05:02:16;;;;;;;0.00;0.00;;;;;;;6.18;77.71;98801.06;7371683;19;20006;-64
2024/02/08 05:04:42;;;;;;;0.00;0.00;;;;;;;6.24;77.71;98804.31;7372882;19;20037;-64
2024/02/08 05:07:08;;;;;;;0.03;0.03;;;;;;;6.19;77.88;98790.66;7366637;19;20015;-63
2024/02/08 05:09:34;;;;;;;0.03;0.03;;;;;;;6.24;77.73;98796.53;7368279;19;20346;-63
2024/02/08 05:12:00;;;;;;;0.08;0.08;;;;;;;6.25;77.68;98779.22;7370298;19;20676;-63
2024/02/08 05:14:26;;;;;;;0.00;0.00;;;;;;;6.19;77.48;98775.13;7370048;19;20621;-63
2024/02/08 05:16:54;;;;;;;0.10;0.10;;;;;;;6.22;77.84;98763.78;7367294;19;20722;-63
2024/02/08 05:19:23;;;;;;;0.10;0.10;;;;;;;6.23;77.47;98762.88;7367992;19;21067;-63
2024/02/08 05:21:50;;;;;;;0.10;0.10;;;;;;;6.19;77.44;98753.53;7365954;19;20005;-64
2024/02/08 05:24:15;;;;;;;0.10;0.10;;;;;;;6.19;77.71;98743.16;7366783;19;20803;-64
2024/02/08 05:26:41;;;;;;;0.10;0.10;;;;;;;6.03;77.75;98713.50;7366649;19;20006;-63
2024/02/08 05:29:08;;;;;;;0.03;0.03;;;;;;;6.23;77.46;98739.53;7367485;19;20006;-63
2024/02/08 05:31:39;;;;;;;0.00;0.00;;;;;;;6.22;77.84;98725.75;7365773;19;20372;-63
2024/02/08 05:34:07;;;;;;;0.00;0.00;;;;;;;6.20;77.32;98714.59;7374189;19;20439;-63
2024/02/08 05:36:33;;;;;;;0.10;0.10;;;;;;;6.01;77.37;98671.28;7371446;19;20836;-63
2024/02/08 05:38:58;;;;;;;0.10;0.10;;;;;;;6.18;77.44;98695.69;7365222;19;20026;-63
2024/02/08 05:41:23;;;;;;;0.00;0.00;;;;;;;6.21;77.38;98698.13;7369781;19;20010;-63
2024/02/08 05:43:51;;;;;;;0.10;0.10;;;;;;;6.18;77.34;98684.44;7373660;19;20006;-64
2024/02/08 05:46:28;;;;;;;0.10;0.10;;;;;;;6.20;77.48;98690.44;7367952;19;20023;-63
2024/02/08 05:49:13;;;;;;;0.00;0.00;;;;;;;6.06;77.45;98653.81;7366111;19;20015;-63
2024/02/08 05:51:46;;;;;;;0.00;0.00;;;;;;;6.14;77.57;98673.38;7368000;19;20840;-63
2024/02/08 05:54:20;;;;;;;0.10;0.10;;;;;;;5.87;77.59;98622.53;7366527;19;20037;-63
2024/02/08 05:56:46;;;;;;;0.00;0.00;;;;;;;6.07;77.39;98658.09;7365982;19;20122;-63
2024/02/08 05:59:17;;;;;;;0.00;0.00;;;;;;;6.09;77.67;98664.06;7366448;19;20014;-63
2024/02/08 06:01:47;;;;;;;0.10;0.10;;;;;;;5.90;77.64;98627.59;7365135;19;20124;-63
2024/02/08 06:04:24;;;;;;;0.10;0.10;;;;;;;6.01;77.78;98635.00;7365933;19;20014;-63
2024/02/08 06:06:58;;;;;;;0.05;0.05;;;;;;;6.06;77.90;98638.28;7364684;19;20022;-63
2024/02/08 06:12:08;;;;;;;0.10;0.10;;;;;;;6.04;78.16;98609.00;7369177;19;20010;-63
2024/02/08 06:14:39;;;;;;;0.10;0.10;;;;;;;5.98;77.74;98592.78;7372328;19;20010;-63
2024/02/08 06:17:07;;;;;;;0.05;0.05;;;;;;;6.01;78.16;98588.38;7366909;19;20006;-63
2024/02/08 06:19:52;;;;;;;0.00;0.00;;;;;;;6.06;77.88;98597.66;7365623;19;20014;-63
2024/02/08 06:22:22;;;;;;;0.10;0.10;;;;;;;6.08;78.51;98589.81;7363183;19;20014;-63
2024/02/08 06:24:50;;;;;;;0.10;0.10;;;;;;;6.11;78.26;98589.72;7364317;19;20676;-63
2024/02/08 06:27:23;;;;;;;0.08;0.08;;;;;;;5.99;78.23;98559.94;7364183;19;20519;-64
2024/02/08 06:29:49;;;;;;;0.10;0.10;;;;;;;6.14;78.17;98568.88;7363792;19;20022;-63
2024/02/08 06:35:11;;;;;;;0.03;0.03;;;;;;;6.17;78.20;98560.97;7365972;19;20037;-63
2024/02/08 06:37:44;;;;;;;0.10;0.10;;;;;;;6.16;78.35;98543.72;7365184;19;20019;-63
2024/02/08 06:40:17;;;;;;;0.10;0.10;;;;;;;6.12;77.81;98549.94;7364614;19;20501;-63
2024/02/08 06:48:31;;;;;;;0.00;0.00;;;;;;;5.97;77.56;98495.22;7363082;19;20013;-63
2024/02/08 07:37:36;;;;;;;0.10;0.10;;;;;;;5.86;78.28;98388.56;7372098;19;20013;-63
2024/02/08 07:40:23;;;;;;;0.05;0.05;;;;;;;5.95;78.33;98397.75;7368598;19;20104;-63
2024/02/08 07:42:52;;;;;;;;;;;;;;;5.96;77.91;98386.47;7368432;19;20015;-63
2024/02/08 07:45:26;;;;;;;0.10;0.10;;;;;;;5.88;78.26;98368.66;7368117;19;20533;-63
2024/02/08 07:48:08;;;;;;;0.10;0.10;;;;;;;5.92;78.39;98372.81;7365509;19;20875;-63
2024/02/08 07:50:44;;;;;;;0.10;0.10;;;;;;;5.81;77.98;98354.25;7367071;19;20018;-63
2024/02/08 07:53:28;;;;;;;0.10;0.10;;;;;;;5.85;78.04;98345.47;7364369;19;20010;-63
2024/02/08 07:55:58;;;;;;;0.10;0.10;;;;;;;5.83;78.28;98342.09;7366399;19;20396;-63
2024/02/08 07:58:27;;;;;;;0.10;0.10;;;;;;;5.84;78.37;98333.41;7366228;19;20485;-63
2024/02/08 08:00:56;;;;;;;0.10;0.10;;;;;;;5.84;78.29;98323.06;7368593;19;20335;-63
2024/02/08 08:03:23;;;;;;;0.10;0.10;;;;;;;5.89;78.53;98331.47;7370046;19;20121;-63
2024/02/08 08:05:56;;;;;;;0.10;0.10;;;;;;;5.77;78.69;98303.47;7368071;19;20017;-63
2024/02/08 08:08:25;;;;;;;0.10;0.10;;;;;;;5.92;78.66;98323.59;7362984;19;20006;-63
2024/02/08 08:11:05;;;;;;;0.00;0.00;;;;;;;5.88;78.52;98306.50;7365219;19;20014;-63
2024/02/08 08:18:58;;;;;;;0.00;0.00;;;;;;;5.98;78.90;98315.59;7369815;19;20022;-63
2024/02/08 08:21:27;;;;;;;0.00;0.00;;;;;;;6.01;78.64;98311.16;7375064;19;20020;-63
2024/02/08 08:24:02;;;;;;;0.10;0.10;;;;;;;5.93;78.69;98296.81;7369105;19;20006;-63
2024/02/08 08:26:43;;;;;;;0.10;0.10;;;;;;;6.01;78.60;98288.69;7371908;19;21235;-63
2024/02/08 08:29:18;;;;;;;0.00;0.00;;;;;;;5.95;78.63;98269.09;7367695;19;20573;-63
2024/02/08 08:31:53;;;;;;;0.10;0.10;;;;;;;5.97;78.64;98267.25;7366255;19;20010;-63
2024/02/08 08:36:58;;;;;;;0.05;0.05;;;;;;;5.94;78.64;98246.69;7368684;19;20015;-63
2024/02/08 08:42:16;;;;;;;0.10;0.10;;;;;;;6.00;78.54;98239.56;7366642;19;20021;-63
2024/02/08 08:44:56;;;;;;;0.10;0.10;;;;;;;5.86;78.62;98217.63;7366722;19;20018;-63
2024/02/08 08:47:24;;;;;;;0.10;0.10;;;;;;;5.87;78.77;98213.28;7365989;19;20007;-63
2024/02/08 08:49:50;;;;;;;0.10;0.10;;;;;;;6.02;78.98;98235.97;7373244;19;20033;-63
2024/02/08 08:52:26;;;;;;;0.10;0.10;;;;;;;5.87;79.08;98202.94;7367757;19;20006;-63
2024/02/08 08:55:10;;;;;;;0.10;0.10;;;;;;;6.05;79.19;98222.06;7368368;19;20752;-63
2024/02/08 08:57:37;;;;;;;0.10;0.10;;;;;;;6.07;79.00;98222.81;7366376;19;20014;-63
2024/02/08 09:00:09;;;;;;;0.10;0.10;;;;;;;6.08;78.98;98196.00;7369385;19;20052;-63
2024/02/08 09:02:40;;;;;;;0.10;0.10;;;;;;;6.10;79.29;98189.00;7367401;19;20019;-63
2024/02/08 09:05:17;;;;;;;0.10;0.10;;;;;;;5.97;79.14;98142.91;7367756;19;20011;-63
2024/02/08 09:07:46;;;;;;;0.10;0.10;;;;;;;5.90;79.19;98125.94;7364370;19;20018;-63
2024/02/08 09:10:14;;;;;;;0.10;0.10;;;;;;;6.06;79.21;98140.84;7367277;19;20010;-63
2024/02/08 09:12:58;;;;;;;0.10;0.10;;;;;;;5.84;79.15;98100.34;7366235;19;20041;-63
2024/02/08 09:15:26;;;;;;;0.10;0.10;;;;;;;6.19;79.16;98147.16;7366930;19;20072;-63
2024/02/08 09:17:53;;;;;;;0.03;0.03;;;;;;;6.08;79.22;98133.81;7366623;19;20010;-63
2024/02/08 09:20:26;;;;;;;0.08;0.08;;;;;;;6.28;79.19;98149.28;7365880;19;20021;-62
2024/02/08 09:22:54;;;;;;;0.10;0.10;;;;;;;6.25;79.41;98141.69;7366722;19;20058;-63
2024/02/08 09:25:23;;;;;;;0.10;0.10;;;;;;;6.26;79.30;98135.56;7367189;19;20090;-62
2024/02/08 09:27:55;;;;;;;0.00;0.00;;;;;;;6.31;79.54;98131.03;7365009;19;20015;-62
2024/02/08 09:30:49;;;;;;;0.08;0.08;;;;;;;6.34;79.33;98128.28;7366996;19;20029;-63
2024/02/08 09:33:29;;;;;;;0.10;0.10;;;;;;;6.29;79.59;98106.94;7365965;19;20010;-62
2024/02/08 09:36:01;;;;;;;0.10;0.10;;;;;;;6.37;79.41;98115.19;7366369;19;20804;-63
2024/02/08 09:38:28;;;;;;;0.03;0.03;;;;;;;6.44;79.73;98111.41;7366520;19;20549;-63
2024/02/08 09:40:59;;;;;;;0.10;0.10;;;;;;;6.46;79.42;98094.00;7374150;19;20690;-63
2024/02/08 09:43:29;;;;;;;0.00;0.00;;;;;;;6.36;79.75;98066.84;7370312;19;20014;-62
2024/02/08 09:46:10;;;;;;;0.10;0.10;;;;;;;6.47;79.48;98076.69;7365732;19;20014;-63
2024/02/08 09:48:43;;;;;;;0.00;0.00;;;;;;;6.44;79.75;98063.91;7369164;19;20593;-63
2024/02/08 09:51:23;;;;;;;0.10;0.10;;;;;;;6.58;79.91;98061.47;7365717;19;20036;-63
2024/02/08 09:53:54;;;;;;;0.05;0.05;;;;;;;6.60;79.94;98048.44;7365269;19;20029;-62
2024/02/08 09:56:28;;;;;;;0.10;0.10;;;;;;;6.58;79.67;98024.31;7366168;19;20029;-63
2024/02/08 09:59:03;;;;;;;0.00;0.00;;;;;;;6.63;79.84;98054.28;7365175;19;20007;-63
2024/02/08 10:01:35;;;;;;;0.10;0.10;;;;;;;6.50;79.91;98028.16;7365314;19;20456;-63
2024/02/08 10:04:15;;;;;;;0.00;0.00;;;;;;;6.66;79.91;98040.34;7362872;19;20478;-63
2024/02/08 10:09:46;;;;;;;0.10;0.10;;;;;;;6.57;79.72;98012.28;7366293;19;20033;-63
2024/02/08 10:12:20;;;;;;;0.10;0.10;;;;;;;6.70;80.21;98015.94;7365831;19;20013;-63
2024/02/08 10:14:50;;;;;;;0.10;0.10;;;;;;;6.73;80.02;98028.75;7366834;19;20350;-63
2024/02/08 10:17:28;;;;;;;0.05;0.05;;;;;;;6.66;79.67;98012.66;7373376;19;20898;-63
2024/02/08 10:22:54;;;;;;;0.00;0.00;;;;;;;6.82;79.78;98022.28;7360422;19;20018;-63
2024/02/08 10:28:09;;;;;;;0.05;0.05;;;;;;;6.84;80.18;98007.47;7363175;19;20773;-63
2024/02/08 10:30:38;;;;;;;0.10;0.10;;;;;;;6.89;79.78;98018.44;7362035;19;20096;-63
2024/02/08 10:33:10;;;;;;;0.10;0.10;;;;;;;6.92;80.31;98013.94;7364786;19;20015;-63
2024/02/08 10:35:39;;;;;;;0.08;0.08;;;;;;;6.91;80.16;98006.25;7370294;19;20007;-63
2024/02/08 10:38:32;;;;;;;0.00;0.00;;;;;;;6.86;79.75;97988.31;7375072;19;20007;-63
2024/02/08 10:40:58;;;;;;;0.10;0.10;;;;;;;6.95;80.20;98008.59;7373173;19;20399;-63
2024/02/08 10:43:25;;;;;;;0.10;0.10;;;;;;;6.84;79.99;98010.88;7371182;19;20010;-62
2024/02/08 10:45:54;;;;;;;0.10;0.10;;;;;;;6.97;80.06;98011.94;7367934;19;20678;-63
2024/02/08 10:48:28;;;;;;;0.00;0.00;;;;;;;7.00;80.24;98010.97;7369260;19;20082;-63
2024/02/08 10:51:00;;;;;;;0.05;0.05;;;;;;;6.76;80.21;97966.38;7370674;19;20014;-63
2024/02/08 10:53:43;;;;;;;0.10;0.10;;;;;;;6.84;80.32;97974.56;7372544;19;20021;-63
2024/02/08 10:56:14;;;;;;;0.10;0.10;;;;;;;7.05;80.18;97996.00;7371556;19;20128;-63
2024/02/08 11:01:37;;;;;;;0.10;0.10;;;;;;;7.07;80.07;97990.72;7371757;19;20229;-63
2024/02/08 11:04:20;;;;;;;0.10;0.10;;;;;;;6.93;80.05;97962.88;7368298;19;20023;-62
2024/02/08 11:06:56;;;;;;;0.08;0.08;;;;;;;7.08;80.33;97977.66;7370498;19;20018;-63
2024/02/08 11:09:22;;;;;;;0.10;0.10;;;;;;;7.09;79.91;97970.72;7370331;19;20462;-63
2024/02/08 11:12:08;;;;;;;0.10;0.10;;;;;;;7.16;80.11;97974.69;7371686;19;20051;-63
2024/02/08 11:14:45;;;;;;;0.00;0.00;;;;;;;7.16;80.06;97969.50;7371015;19;20477;-63
2024/02/08 11:17:20;;;;;;;0.10;0.10;;;;;;;7.17;79.90;97972.00;7375538;19;20035;-63
2024/02/08 11:19:56;;;;;;;0.10;0.10;;;;;;;7.17;80.12;97968.56;7373518;19;20565;-63
2024/02/08 11:22:43;;;;;;;0.10;0.10;;;;;;;7.18;80.11;97967.66;7373307;19;20640;-63
2024/02/08 11:25:19;;;;;;;0.10;0.10;;;;;;;7.13;79.96;97954.06;7372530;19;20014;-63
2024/02/08 11:27:52;;;;;;;0.08;0.08;;;;;;;7.21;80.38;97963.13;7376755;19;20037;-63
2024/02/08 11:30:33;;;;;;;0.00;0.00;;;;;;;7.10;79.97;97928.31;7378832;19;20097;-63
2024/02/08 11:33:03;;;;;;;0.10;0.10;;;;;;;7.21;80.28;97951.91;7377395;19;20010;-63
2024/02/08 11:35:32;;;;;;;0.00;0.00;;;;;;;7.24;80.44;97954.34;7378196;19;20039;-63
2024/02/08 11:38:21;;;;;;;0.10;0.10;;;;;;;7.25;80.02;97943.06;7369998;19;20638;-63
2024/02/08 11:40:47;;;;;;;0.10;0.10;;;;;;;7.24;80.35;97946.56;7369062;19;20010;-63
2024/02/08 11:43:19;;;;;;;0.05;0.05;;;;;;;7.28;80.12;97948.06;7370447;19;20538;-63
2024/02/08 11:45:56;;;;;;;0.03;0.03;;;;;;;7.29;80.10;97934.16;7369410;19;20014;-63
2024/02/08 11:48:33;;;;;;;0.10;0.10;;;;;;;7.28;80.45;97932.50;7367487;19;20012;-63
2024/02/08 11:51:10;;;;;;;0.10;0.10;;;;;;;7.32;80.41;97922.78;7370307;19;20513;-63
2024/02/08 11:53:37;;;;;;;0.10;0.10;;;;;;;7.29;80.17;97921.19;7368306;19;20328;-62
2024/02/08 11:56:07;;;;;;;0.10;0.10;;;;;;;7.15;80.15;97884.78;7370366;19;20011;-62
2024/02/08 11:58:35;;;;;;;0.00;0.00;;;;;;;7.15;80.58;97879.59;7370342;19;20014;-62
2024/02/08 12:01:03;;;;;;;0.00;0.00;;;;;;;7.34;80.58;97906.19;7369962;19;20756;-63
2024/02/08 12:03:30;;;;;;;0.00;0.00;;;;;;;7.28;80.74;97911.72;7367102;19;20563;-60
2024/02/08 12:05:57;;;;;;;0.00;0.00;;;;;;;7.24;80.53;97882.50;7370653;19;20019;-62
2024/02/08 12:08:23;;;;;;;0.10;0.10;;;;;;;7.36;80.77;97893.16;7367812;19;20073;-63
2024/02/08 12:10:49;;;;;;;0.10;0.10;;;;;;;7.35;80.24;97881.94;7368131;19;20045;-63
2024/02/08 12:13:25;;;;;;;0.10;0.10;;;;;;;7.39;80.45;97880.81;7366945;19;20014;-63
2024/02/08 12:15:57;;;;;;;0.10;0.10;;;;;;;7.37;80.47;97879.25;7368318;19;20018;-62
2024/02/08 12:18:26;;;;;;;0.10;0.10;;;;;;;6.89;80.59;97782.38;7368607;19;20011;-62
2024/02/08 12:21:01;;;;;;;0.10;0.10;;;;;;;7.38;80.26;97850.59;7367744;19;20533;-61
2024/02/08 12:23:30;;;;;;;0.00;0.00;;;;;;;7.46;80.34;97864.00;7372574;19;20006;-63
2024/02/08 12:26:02;;;;;;;0.05;0.05;;;;;;;7.48;80.49;97854.34;7374428;19;20632;-63
2024/02/08 12:28:35;;;;;;;0.00;0.00;;;;;;;7.46;80.51;97858.81;7365868;19;20101;-62
2024/02/08 12:31:03;;;;;;;0.10;0.10;;;;;;;7.48;80.57;97856.97;7367952;19;20015;-62
2024/02/08 12:33:32;;;;;;;0.10;0.10;;;;;;;7.51;80.80;97849.00;7369126;19;20510;-63
2024/02/08 12:35:58;;;;;;;0.10;0.10;;;;;;;7.41;80.52;97824.47;7366988;19;20006;-63
2024/02/08 12:38:26;;;;;;;0.10;0.10;;;;;;;7.52;80.45;97832.50;7368721;19;20006;-62
2024/02/08 12:40:54;;;;;;;0.10;0.10;;;;;;;7.57;80.38;97839.19;7368283;19;20499;-62
2024/02/08 12:43:19;;;;;;;0.10;0.10;;;;;;;7.59;80.56;97821.75;7366264;19;20085;-62
2024/02/08 12:45:52;;;;;;;0.10;0.10;;;;;;;7.65;80.80;97818.81;7366514;19;20837;-62
2024/02/08 12:48:20;;;;;;;0.10;0.10;;;;;;;7.53;80.53;97803.00;7368015;19;20010;-62
2024/02/08 12:50:51;;;;;;;;;;;;;;;7.70;80.76;97803.81;7369695;19;20049;-62
2024/02/08 12:53:18;;;;;;;0.10;0.10;;;;;;;7.70;80.64;97811.59;7369113;19;19952;-62
2024/02/08 12:55:47;;;;;;;0.10;0.10;;;;;;;7.70;80.35;97803.81;7368327;19;20034;-62
2024/02/08 12:58:16;;;;;;;0.10;0.10;;;;;;;7.41;80.52;97751.78;7367083;19;20013;-62
2024/02/08 13:00:45;;;;;;;0.10;0.10;;;;;;;7.71;80.63;97789.91;7367623;19;20013;-61
2024/02/08 13:03:11;;;;;;;0.00;0.00;;;;;;;7.73;80.85;97795.84;7367821;19;20478;-62
2024/02/08 13:05:40;;;;;;;0.10;0.10;;;;;;;7.73;80.49;97782.84;7366169;19;20119;-62
2024/02/08 13:08:08;;;;;;;0.10;0.10;;;;;;;7.78;80.58;97791.22;7365374;19;20381;-62
2024/02/08 13:10:34;;;;;;;0.00;0.00;;;;;;;7.78;80.33;97780.84;7366892;19;20090;-62
2024/02/08 13:13:01;;;;;;;0.10;0.10;;;;;;;7.80;80.44;97789.34;7366197;19;20522;-62
2024/02/08 13:15:33;;;;;;;0.10;0.10;;;;;;;7.76;80.76;97780.09;7365868;19;20694;-62
2024/02/08 13:18:00;;;;;;;0.10;0.10;;;;;;;7.84;80.27;97790.84;7366166;19;20007;-62
2024/02/08 13:20:26;;;;;;;0.10;0.10;;;;;;;7.82;80.37;97782.34;7365812;19;20021;-61
2024/02/08 13:22:52;;;;;;;0.10;0.10;;;;;;;7.87;80.76;97789.84;7367747;19;20006;-62
2024/02/08 13:25:34;;;;;;;0.10;0.10;;;;;;;7.87;80.41;97780.31;7368468;19;20025;-62
2024/02/08 13:27:59;;;;;;;0.03;0.03;;;;;;;7.79;80.59;97761.72;7364502;19;20085;-62
2024/02/08 13:30:29;;;;;;;0.10;0.10;;;;;;;7.83;80.62;97763.22;7364181;19;20021;-62
2024/02/08 13:32:57;;;;;;;0.00;0.00;;;;;;;7.90;80.57;97771.47;7367426;19;20359;-62
2024/02/08 13:35:23;;;;;;;0.00;0.00;;;;;;;7.82;80.58;97761.53;7368512;19;20014;-61
2024/02/08 13:37:56;;;;;;;0.00;0.00;;;;;;;7.76;80.35;97736.78;7365763;19;20002;-62
2024/02/08 13:40:24;;;;;;;0.10;0.10;;;;;;;7.86;80.63;97752.66;7365101;19;20395;-62
2024/02/08 13:42:50;;;;;;;0.08;0.08;;;;;;;7.83;80.43;97750.22;7366021;19;20994;-61
2024/02/08 13:45:17;;;;;;;0.10;0.10;;;;;;;7.71;80.43;97732.78;7365114;19;20458;-62
2024/02/08 13:47:49;;;;;;;0.10;0.10;;;;;;;7.85;80.40;97743.16;7364063;19;20561;-62
2024/02/08 13:50:18;;;;;;;0.10;0.10;;;;;;;7.86;80.30;97736.25;7367420;19;20013;-61
2024/02/08 13:52:48;;;;;;;0.10;0.10;;;;;;;7.84;80.55;97732.88;7367363;19;20010;-62
2024/02/08 13:55:19;;;;;;;0.00;0.00;;;;;;;7.82;80.81;97730.38;7364763;19;20007;-61
2024/02/08 13:57:51;;;;;;;0.10;0.10;;;;;;;7.81;80.70;97715.72;7366227;19;20029;-62
2024/02/08 14:00:21;;;;;;;0.10;0.10;;;;;;;7.82;80.89;97725.19;7365810;19;20007;-62
2024/02/08 14:02:51;;;;;;;0.10;0.10;;;;;;;7.82;80.70;97717.38;7368444;19;20039;-62
2024/02/08 14:05:17;;;;;;;0.10;0.10;;;;;;;7.82;80.70;97711.34;7363955;19;20015;-62